Time;durP1;ratioP1;P1;durP2;ratioP2;P2;SDS_P1;SDS_P2;PMS_P1;PMS_P2;Temp;Humidity;BMP_temperature;BMP_pressure;BME280_temperature;BME280_humidity;BME280_pressure;Samples;Min_cycle;Max_cycle;Signal;HPM_P1;HPM_P2
2022/08/13 00:00:39;;;;;;;;;;;;;;;25.96;51.80;101394.78;1017225;29;710;-68
2022/08/13 00:01:36;;;;;;;;;;;;;;;25.94;51.86;101389.50;1017229;29;690;-68
2022/08/13 00:02:28;;;;;;;;;;;;;;;25.98;51.68;101397.31;1017211;29;736;-68
2022/08/13 00:03:19;;;;;;;;;;;;;;;25.96;51.76;101402.13;1016053;29;691;-68
2022/08/13 00:04:09;;;;;;;;;;;;;;;25.94;51.73;101397.69;1017225;29;686;-68
2022/08/13 00:05:00;;;;;;;;;;;;;;;25.94;51.80;101397.69;1016749;29;675;-68
2022/08/13 00:05:51;;;;;;;;;;;;;;;25.94;51.83;101396.84;1018357;28;678;-67
2022/08/13 00:07:31;;;;;;;;;;;;;;;25.92;51.68;101399.75;1018291;28;707;-67
2022/08/13 00:08:25;;;;;;;;;;;;;;;25.93;51.66;101401.47;1017206;29;643;-68
2022/08/13 00:09:15;;;;;;;;;;;;;;;25.91;51.83;101399.94;1017844;29;730;-68
2022/08/13 00:10:06;;;;;;;;;;;;;;;25.88;51.94;101392.97;1016143;29;620;-68
2022/08/13 00:10:57;;;;;;;;;;;;;;;25.89;51.81;101394.66;1017144;29;678;-68
2022/08/13 00:12:56;;;;;;;;;;;;;;;25.88;51.90;101394.84;1018217;29;667;-67
2022/08/13 00:13:47;;;;;;;;;;;;;;;25.88;51.83;101398.44;1017123;29;603;-67
2022/08/13 00:14:37;;;;;;;;;;;;;;;25.87;51.80;101393.16;1017247;29;663;-68
2022/08/13 00:15:28;;;;;;;;;;;;;;;25.85;51.90;101387.88;1017156;29;649;-67
2022/08/13 00:16:19;;;;;;;;;;;;;;;25.87;52.02;101387.69;1024556;29;721;-67
2022/08/13 00:17:11;;;;;;;;;;;;;;;25.85;51.83;101387.88;1024997;28;627;-69
2022/08/13 00:18:02;;;;;;;;;;;;;;;25.86;51.74;101391.44;1025048;28;710;-67
2022/08/13 00:18:53;;;;;;;;;;;;;;;25.84;51.78;101394.38;1025000;28;713;-67
2022/08/13 00:19:43;;;;;;;;;;;;;;;25.83;51.79;101389.94;1024588;28;660;-68
2022/08/13 00:20:33;;;;;;;;;;;;;;;25.84;51.89;101396.25;1025041;28;682;-68
2022/08/13 00:21:25;;;;;;;;;;;;;;;25.82;51.93;101388.25;1025036;28;725;-68
2022/08/13 00:22:19;;;;;;;;;;;;;;;25.82;51.86;101388.25;1025087;28;686;-67
2022/08/13 00:23:10;;;;;;;;;;;;;;;25.81;51.87;101392.00;1024934;28;1977;-68
2022/08/13 00:24:00;;;;;;;;;;;;;;;25.79;51.87;101388.63;1025021;28;750;-67
2022/08/13 00:24:51;;;;;;;;;;;;;;;25.79;51.83;101394.09;1024960;28;627;-67
2022/08/13 00:25:41;;;;;;;;;;;;;;;25.78;51.88;101392.41;1025025;28;650;-67
2022/08/13 00:26:33;;;;;;;;;;;;;;;25.80;51.73;101395.78;1025054;28;672;-68
2022/08/13 00:27:23;;;;;;;;;;;;;;;25.79;51.89;101388.63;1025036;28;634;-68
2022/08/13 00:28:14;;;;;;;;;;;;;;;25.78;52.00;101392.41;1025028;28;674;-68
2022/08/13 00:29:04;;;;;;;;;;;;;;;25.79;51.85;101394.09;1025109;28;725;-68
2022/08/13 00:29:56;;;;;;;;;;;;;;;25.76;52.02;101389.00;1025015;29;623;-68
2022/08/13 00:30:46;;;;;;;;;;;;;;;25.77;51.76;101396.16;1028698;28;777;-67
2022/08/13 00:31:37;;;;;;;;;;;;;;;25.76;51.67;101388.16;1028672;28;547;-67
2022/08/13 00:32:29;;;;;;;;;;;;;;;25.72;51.90;101393.13;1025103;28;647;-68
2022/08/13 00:33:20;;;;;;;;;;;;;;;25.74;51.92;101391.06;1025141;28;694;-68
2022/08/13 00:34:10;;;;;;;;;;;;;;;25.73;51.96;101389.38;1024643;28;630;-68
2022/08/13 00:35:01;;;;;;;;;;;;;;;25.74;51.80;101387.50;1025083;28;722;-67
2022/08/13 00:35:51;;;;;;;;;;;;;;;25.73;51.94;101394.84;1024956;28;690;-68
2022/08/13 00:36:42;;;;;;;;;;;;;;;25.74;51.98;101396.53;1025078;28;694;-67
2022/08/13 00:37:32;;;;;;;;;;;;;;;25.74;51.84;101393.81;1025086;28;623;-68
2022/08/13 00:38:23;;;;;;;;;;;;;;;25.72;52.00;101392.28;1025034;28;627;-68
2022/08/13 00:39:13;;;;;;;;;;;;;;;25.72;52.04;101393.13;1025019;28;639;-68
2022/08/13 00:40:03;;;;;;;;;;;;;;;25.72;52.01;101386.81;1024967;28;642;-68
2022/08/13 00:40:54;;;;;;;;;;;;;;;25.70;51.97;101395.19;1025049;28;709;-68
2022/08/13 00:41:44;;;;;;;;;;;;;;;25.69;51.97;101393.50;1025017;28;604;-68
2022/08/13 00:42:35;;;;;;;;;;;;;;;25.70;52.13;101392.47;1025083;28;705;-67
2022/08/13 00:43:25;;;;;;;;;;;;;;;25.68;51.91;101391.78;1025024;28;647;-68
2022/08/13 00:44:16;;;;;;;;;;;;;;;25.67;51.86;101389.25;1024979;28;729;-68
2022/08/13 00:45:06;;;;;;;;;;;;;;;25.69;51.97;101392.66;1025052;28;643;-68
2022/08/13 00:45:57;;;;;;;;;;;;;;;25.67;51.85;101395.56;1025060;28;721;-67
2022/08/13 00:46:47;;;;;;;;;;;;;;;25.65;51.99;101392.16;1025037;28;622;-68
2022/08/13 00:48:47;;;;;;;;;;;;;;;25.65;51.86;101394.91;1024551;28;694;-68
2022/08/13 00:49:38;;;;;;;;;;;;;;;25.66;52.03;101393.84;1025028;28;665;-68
2022/08/13 00:50:28;;;;;;;;;;;;;;;25.66;51.99;101387.56;1024935;28;619;-67
2022/08/13 00:51:19;;;;;;;;;;;;;;;25.65;51.98;101399.50;1024980;28;642;-67
2022/08/13 00:52:10;;;;;;;;;;;;;;;25.65;52.04;101389.44;1028654;28;635;-67
2022/08/13 00:53:02;;;;;;;;;;;;;;;25.64;52.09;101395.94;1028679;28;686;-67
2022/08/13 00:53:54;;;;;;;;;;;;;;;25.63;51.94;101387.91;1024958;28;747;-67
2022/08/13 00:54:44;;;;;;;;;;;;;;;25.63;52.05;101394.22;1024968;28;630;-67
2022/08/13 00:55:36;;;;;;;;;;;;;;;25.63;51.93;101394.22;1025022;28;630;-67
2022/08/13 00:56:26;;;;;;;;;;;;;;;25.61;51.99;101390.81;1024945;28;674;-67
2022/08/13 00:57:17;;;;;;;;;;;;;;;25.61;51.84;101390.81;1025010;28;673;-67
2022/08/13 00:58:07;;;;;;;;;;;;;;;25.61;52.05;101393.56;1024970;28;682;-68
2022/08/13 00:59:07;;;;;;;;;;;;;;;25.60;51.88;101392.72;1024886;28;694;-67
2022/08/13 00:59:57;;;;;;;;;;;;;;;25.59;51.97;101396.47;1025001;28;636;-67
2022/08/13 01:00:48;;;;;;;;;;;;;;;25.56;51.95;101388.66;1028599;28;753;-68
2022/08/13 01:01:38;;;;;;;;;;;;;;;25.56;51.95;101394.09;1028736;28;622;-67
2022/08/13 01:02:30;;;;;;;;;;;;;;;25.58;52.08;101393.91;1025842;28;741;-67
2022/08/13 01:03:20;;;;;;;;;;;;;;;25.55;52.02;101389.66;1025272;28;776;-67
2022/08/13 01:04:11;;;;;;;;;;;;;;;25.57;51.98;101394.94;1025710;28;639;-67
2022/08/13 01:05:01;;;;;;;;;;;;;;;25.56;51.86;101394.09;1025674;28;1001;-67
2022/08/13 01:05:53;;;;;;;;;;;;;;;25.53;51.92;101393.63;1025695;28;619;-67
2022/08/13 01:06:43;;;;;;;;;;;;;;;25.53;52.04;101390.88;1029399;28;717;-67
2022/08/13 01:07:33;;;;;;;;;;;;;;;25.53;52.13;101390.88;1029389;28;630;-67
2022/08/13 01:08:24;;;;;;;;;;;;;;;25.52;52.13;101391.91;1025806;28;654;-66
2022/08/13 01:09:14;;;;;;;;;;;;;;;25.52;51.99;101392.75;1025690;28;678;-66
2022/08/13 01:10:05;;;;;;;;;;;;;;;25.52;51.92;101397.38;1025747;28;741;-66
2022/08/13 01:10:56;;;;;;;;;;;;;;;25.51;52.04;101390.22;1025639;28;683;-67
2022/08/13 01:11:46;;;;;;;;;;;;;;;25.50;52.03;101385.78;1025688;28;662;-67
2022/08/13 01:12:37;;;;;;;;;;;;;;;25.49;52.12;101386.81;1025712;28;662;-67
2022/08/13 01:13:28;;;;;;;;;;;;;;;25.50;52.13;101385.78;1025727;28;723;-66
2022/08/13 01:14:18;;;;;;;;;;;;;;;25.48;52.02;101388.69;1025685;28;631;-67
2022/08/13 01:15:13;;;;;;;;;;;;;;;25.45;52.16;101393.66;1025732;28;670;-67
2022/08/13 01:16:04;;;;;;;;;;;;;;;25.46;52.12;101389.91;1022872;28;1217;-67
2022/08/13 01:16:54;;;;;;;;;;;;;;;25.45;52.16;101390.94;1021692;29;596;-67
2022/08/13 01:17:45;;;;;;;;;;;;;;;25.45;52.03;101397.25;1021340;29;686;-67
2022/08/13 01:18:36;;;;;;;;;;;;;;;25.43;52.20;101393.03;1020592;29;655;-67
2022/08/13 01:19:26;;;;;;;;;;;;;;;25.43;52.22;101388.41;1021639;29;618;-67
2022/08/13 01:20:23;;;;;;;;;;;;;;;25.43;52.17;101398.50;1021724;29;677;-67
2022/08/13 01:21:15;;;;;;;;;;;;;;;25.43;52.18;101393.03;1021738;29;642;-67
2022/08/13 01:22:05;;;;;;;;;;;;;;;25.45;52.13;101396.41;1021756;29;630;-68
2022/08/13 01:22:56;;;;;;;;;;;;;;;25.43;52.17;101393.88;1020472;29;1983;-67
2022/08/13 01:23:46;;;;;;;;;;;;;;;25.42;52.14;101397.63;1020628;29;737;-67
2022/08/13 01:24:37;;;;;;;;;;;;;;;25.43;52.11;101390.31;1021691;29;1146;-67
2022/08/13 01:25:28;;;;;;;;;;;;;;;25.42;52.05;101399.53;1021656;29;636;-66
2022/08/13 01:26:18;;;;;;;;;;;;;;;25.42;51.98;101396.78;1024399;29;702;-67
2022/08/13 01:27:10;;;;;;;;;;;;;;;25.40;52.23;101386.06;1025899;28;629;-67
2022/08/13 01:28:00;;;;;;;;;;;;;;;25.38;52.19;101395.44;1022128;28;630;-67
2022/08/13 01:28:50;;;;;;;;;;;;;;;25.37;52.26;101393.75;1020528;29;635;-68
2022/08/13 01:29:41;;;;;;;;;;;;;;;25.38;51.81;101398.19;1020608;29;666;-67
2022/08/13 01:30:31;;;;;;;;;;;;;;;25.37;52.14;101388.28;1020715;29;698;-67
2022/08/13 01:31:22;;;;;;;;;;;;;;;25.36;52.22;101390.19;1021691;29;698;-67
2022/08/13 01:32:15;;;;;;;;;;;;;;;25.36;52.14;101392.91;1021112;29;690;-67
2022/08/13 01:33:08;;;;;;;;;;;;;;;25.36;52.07;101392.06;1021639;29;622;-67
2022/08/13 01:33:59;;;;;;;;;;;;;;;25.37;52.17;101396.47;1024297;29;730;-67
2022/08/13 01:34:50;;;;;;;;;;;;;;;25.35;52.17;101396.66;1024188;29;619;-67
2022/08/13 01:35:40;;;;;;;;;;;;;;;25.35;52.16;101398.53;1021633;29;662;-67
2022/08/13 01:36:32;;;;;;;;;;;;;;;25.33;52.12;101392.41;1020626;29;710;-67
2022/08/13 01:37:23;;;;;;;;;;;;;;;25.33;52.51;101397.88;1021695;29;642;-67
2022/08/13 01:38:14;;;;;;;;;;;;;;;25.33;52.13;101397.88;1021561;29;634;-67
2022/08/13 01:39:05;;;;;;;;;;;;;;;25.33;52.16;101403.31;1021661;29;698;-67
2022/08/13 01:39:55;;;;;;;;;;;;;;;25.32;52.12;101390.72;1021642;29;603;-67
2022/08/13 01:40:48;;;;;;;;;;;;;;;25.32;52.00;101393.44;1020553;29;671;-67
2022/08/13 01:41:38;;;;;;;;;;;;;;;25.33;52.18;101398.72;1021607;29;611;-67
2022/08/13 01:42:29;;;;;;;;;;;;;;;25.33;52.01;101397.88;1021583;29;658;-67
2022/08/13 01:43:19;;;;;;;;;;;;;;;25.29;52.21;101391.06;1020569;29;1952;-67
2022/08/13 01:44:10;;;;;;;;;;;;;;;25.27;52.26;101393.97;1021622;29;639;-67
2022/08/13 01:45:00;;;;;;;;;;;;;;;25.26;52.11;101398.59;1021722;29;709;-68
2022/08/13 01:45:50;;;;;;;;;;;;;;;25.27;52.25;101396.72;1024710;29;651;-68
2022/08/13 01:50:31;;;;;;;;;;;;;;;25.27;52.01;101393.97;1017224;29;616;-67
2022/08/13 01:51:21;;;;;;;;;;;;;;;25.24;52.15;101394.38;1017242;29;650;-67
2022/08/13 01:52:12;;;;;;;;;;;;;;;25.23;52.15;101390.78;1017164;29;639;-67
2022/08/13 01:53:02;;;;;;;;;;;;;;;25.23;52.30;101390.78;1017173;29;623;-67
2022/08/13 01:53:53;;;;;;;;;;;;;;;25.21;52.19;101395.56;1017187;29;694;-67
2022/08/13 01:54:44;;;;;;;;;;;;;;;25.23;52.23;101396.25;1017175;29;657;-68
2022/08/13 01:55:39;;;;;;;;;;;;;;;25.21;52.17;101386.53;1017117;29;608;-68
2022/08/13 01:56:29;;;;;;;;;;;;;;;25.22;52.08;101396.44;1017176;29;698;-68
2022/08/13 01:57:20;;;;;;;;;;;;;;;25.23;52.09;101398.97;1017168;29;710;-68
2022/08/13 01:58:10;;;;;;;;;;;;;;;25.20;52.11;101396.59;1017199;29;619;-68
2022/08/13 01:59:01;;;;;;;;;;;;;;;25.20;52.17;101398.50;1017143;29;658;-67
2022/08/13 01:59:53;;;;;;;;;;;;;;;25.19;52.25;101400.38;1017199;29;678;-67
2022/08/13 02:00:44;;;;;;;;;;;;;;;25.17;52.12;101393.38;1017197;29;631;-67
2022/08/13 02:01:35;;;;;;;;;;;;;;;25.16;52.20;101398.00;1017187;29;659;-67
2022/08/13 02:02:27;;;;;;;;;;;;;;;25.15;52.40;101396.28;1017081;29;972;-67
2022/08/13 02:03:17;;;;;;;;;;;;;;;25.16;52.15;101397.16;1017043;29;1948;-67
2022/08/13 02:04:09;;;;;;;;;;;;;;;25.15;52.25;101396.28;1017223;29;932;-66
2022/08/13 02:04:59;;;;;;;;;;;;;;;25.14;52.28;101391.03;1017243;29;628;-66
2022/08/13 02:05:50;;;;;;;;;;;;;;;25.16;52.28;101398.00;1017191;29;695;-66
2022/08/13 02:06:40;;;;;;;;;;;;;;;25.17;52.03;101393.38;1017141;29;671;-67
2022/08/13 02:07:31;;;;;;;;;;;;;;;25.15;52.14;101401.75;1017115;29;674;-66
2022/08/13 02:08:22;;;;;;;;;;;;;;;25.16;52.07;101397.16;1017131;29;631;-67
2022/08/13 02:09:13;;;;;;;;;;;;;;;25.15;52.08;101396.28;1016964;29;1143;-67
2022/08/13 02:10:03;;;;;;;;;;;;;;;25.13;52.18;101392.91;1017150;29;722;-67
2022/08/13 02:10:54;;;;;;;;;;;;;;;25.13;52.17;101392.91;1016517;29;639;-67
2022/08/13 02:11:44;;;;;;;;;;;;;;;25.12;52.35;101396.66;1014263;29;679;-67
2022/08/13 02:12:35;;;;;;;;;;;;;;;25.13;52.24;101395.63;1018153;29;615;-67
2022/08/13 02:13:29;;;;;;;;;;;;;;;25.12;52.36;101395.81;1016518;29;757;-67
2022/08/13 02:14:21;;;;;;;;;;;;;;;25.12;52.03;101393.06;1017159;29;627;-67
2022/08/13 02:15:11;;;;;;;;;;;;;;;25.09;52.13;101391.56;1017117;29;635;-67
2022/08/13 02:16:02;;;;;;;;;;;;;;;25.11;52.25;101388.66;1019434;29;1172;-67
2022/08/13 02:16:52;;;;;;;;;;;;;;;25.08;52.18;101389.84;1020550;29;702;-67
2022/08/13 02:17:43;;;;;;;;;;;;;;;25.08;52.21;101389.03;1021513;29;701;-67
2022/08/13 02:18:33;;;;;;;;;;;;;;;25.08;52.15;101392.59;1020478;29;659;-67
2022/08/13 02:19:23;;;;;;;;;;;;;;;25.08;52.14;101383.59;1020449;29;599;-67
2022/08/13 02:20:17;;;;;;;;;;;;;;;25.07;52.31;101388.19;1020464;29;697;-67
2022/08/13 02:21:07;;;;;;;;;;;;;;;25.07;52.40;101392.78;1020419;29;714;-67
2022/08/13 02:21:58;;;;;;;;;;;;;;;25.06;52.34;101391.94;1022164;29;946;-67
2022/08/13 02:22:48;;;;;;;;;;;;;;;25.06;52.19;101386.50;1025459;28;622;-67
2022/08/13 02:23:39;;;;;;;;;;;;;;;25.06;52.14;101391.09;1025351;28;658;-68
2022/08/13 02:24:29;;;;;;;;;;;;;;;25.05;52.28;101390.25;1025489;28;705;-67
2022/08/13 02:25:23;;;;;;;;;;;;;;;25.06;52.15;101391.94;1025364;28;611;-67
2022/08/13 02:26:13;;;;;;;;;;;;;;;25.03;52.36;101386.84;1025374;28;631;-67
2022/08/13 02:27:04;;;;;;;;;;;;;;;25.04;52.18;101388.53;1029094;28;626;-67
2022/08/13 02:27:55;;;;;;;;;;;;;;;25.05;52.28;101389.41;1029103;28;576;-68
2022/08/13 02:28:45;;;;;;;;;;;;;;;25.05;52.22;101398.44;1029055;28;627;-67
2022/08/13 02:29:36;;;;;;;;;;;;;;;25.05;52.23;101390.25;1029042;28;670;-67
2022/08/13 02:30:27;;;;;;;;;;;;;;;25.04;52.21;101383.09;1025418;28;717;-67
2022/08/13 02:31:21;;;;;;;;;;;;;;;25.02;52.24;101392.47;1025457;28;626;-67
2022/08/13 02:32:11;;;;;;;;;;;;;;;25.02;52.20;101389.75;1025499;28;725;-67
2022/08/13 02:33:03;;;;;;;;;;;;;;;25.01;52.16;101386.16;1025390;28;678;-67
2022/08/13 02:33:53;;;;;;;;;;;;;;;25.01;52.24;101383.44;1025441;28;650;-66
2022/08/13 02:34:44;;;;;;;;;;;;;;;25.02;52.29;101389.75;1025254;28;603;-67
2022/08/13 02:35:37;;;;;;;;;;;;;;;25.00;52.31;101391.81;1025354;28;662;-67
2022/08/13 02:36:27;;;;;;;;;;;;;;;25.00;52.05;101392.66;1025254;28;648;-67
2022/08/13 02:37:21;;;;;;;;;;;;;;;24.99;52.20;101384.66;1025400;28;623;-67
2022/08/13 02:38:12;;;;;;;;;;;;;;;24.97;52.32;101387.56;1025413;28;749;-67
2022/08/13 02:39:02;;;;;;;;;;;;;;;24.99;52.18;101390.09;1025392;28;706;-67
2022/08/13 02:39:53;;;;;;;;;;;;;;;24.97;52.39;101394.88;1025406;28;647;-67
2022/08/13 02:41:54;;;;;;;;;;;;;;;24.93;52.09;101392.47;1025367;29;670;-67
2022/08/13 02:42:44;;;;;;;;;;;;;;;24.94;52.41;101387.91;1025254;28;670;-67
2022/08/13 02:43:35;;;;;;;;;;;;;;;24.94;52.34;101393.34;1025379;28;706;-67
2022/08/13 02:44:25;;;;;;;;;;;;;;;24.95;52.41;101388.75;1024874;28;665;-67
2022/08/13 02:45:16;;;;;;;;;;;;;;;24.93;52.46;101386.19;1025467;28;631;-67
2022/08/13 02:46:07;;;;;;;;;;;;;;;24.95;52.20;101392.34;1025468;28;682;-67
2022/08/13 02:46:57;;;;;;;;;;;;;;;24.92;52.31;101388.06;1025416;28;655;-67
2022/08/13 02:47:48;;;;;;;;;;;;;;;24.91;52.25;101390.97;1025350;28;683;-67
2022/08/13 02:48:40;;;;;;;;;;;;;;;24.92;52.12;101393.50;1025319;28;614;-67
2022/08/13 02:49:31;;;;;;;;;;;;;;;24.92;52.25;101390.78;1025328;28;651;-67
2022/08/13 02:50:21;;;;;;;;;;;;;;;24.91;52.35;101394.53;1025363;28;690;-67
2022/08/13 02:51:12;;;;;;;;;;;;;;;24.91;52.19;101388.22;1024737;29;730;-67
2022/08/13 02:52:03;;;;;;;;;;;;;;;24.90;52.35;101387.38;1025388;28;659;-67
2022/08/13 02:52:54;;;;;;;;;;;;;;;24.90;52.23;101392.00;1025326;28;682;-67
2022/08/13 02:53:44;;;;;;;;;;;;;;;24.90;52.14;101387.38;1025337;28;721;-67
2022/08/13 02:54:34;;;;;;;;;;;;;;;24.88;52.31;101389.47;1025350;28;680;-67
2022/08/13 02:55:26;;;;;;;;;;;;;;;24.88;52.32;101383.16;1025273;28;654;-67
2022/08/13 02:56:18;;;;;;;;;;;;;;;24.87;52.32;101393.22;1025325;28;670;-67
2022/08/13 02:57:08;;;;;;;;;;;;;;;24.86;52.28;101393.41;1025287;28;710;-68
2022/08/13 02:57:59;;;;;;;;;;;;;;;24.86;52.28;101391.53;1025383;28;611;-67
2022/08/13 02:58:50;;;;;;;;;;;;;;;24.85;52.32;101391.69;1025273;28;620;-67
2022/08/13 02:59:41;;;;;;;;;;;;;;;24.84;52.39;101390.84;1025214;28;619;-67
2022/08/13 03:00:32;;;;;;;;;;;;;;;24.83;52.43;101388.28;1025281;28;638;-67
2022/08/13 03:01:22;;;;;;;;;;;;;;;24.82;52.44;101390.16;1024798;29;722;-67
2022/08/13 03:02:12;;;;;;;;;;;;;;;24.83;52.28;101391.03;1025349;28;598;-68
2022/08/13 03:03:03;;;;;;;;;;;;;;;24.82;52.36;101394.78;1025228;28;1981;-68
2022/08/13 03:03:53;;;;;;;;;;;;;;;24.83;52.39;101391.88;1025287;28;678;-67
2022/08/13 03:04:44;;;;;;;;;;;;;;;24.82;52.40;101389.31;1025247;28;724;-67
2022/08/13 03:05:34;;;;;;;;;;;;;;;24.82;52.18;101394.78;1025146;28;752;-67
2022/08/13 03:06:25;;;;;;;;;;;;;;;24.83;52.29;101393.75;1025271;29;627;-67
2022/08/13 03:07:18;;;;;;;;;;;;;;;24.83;52.12;101385.56;1025289;28;677;-67
2022/08/13 03:08:08;;;;;;;;;;;;;;;24.82;52.49;101392.06;1025237;28;701;-67
2022/08/13 03:09:01;;;;;;;;;;;;;;;24.79;52.26;101398.69;1025317;28;607;-67
2022/08/13 03:09:52;;;;;;;;;;;;;;;24.79;52.26;101389.69;1025146;28;643;-67
2022/08/13 03:10:42;;;;;;;;;;;;;;;24.77;52.34;101398.03;1025034;28;1303;-67
2022/08/13 03:11:33;;;;;;;;;;;;;;;24.80;52.30;101400.41;1025227;28;626;-67
2022/08/13 03:12:23;;;;;;;;;;;;;;;24.79;52.23;101397.84;1025291;28;692;-67
2022/08/13 03:13:15;;;;;;;;;;;;;;;24.78;51.92;101398.88;1025225;28;674;-67
2022/08/13 03:14:06;;;;;;;;;;;;;;;24.78;52.34;101393.44;1025230;28;789;-67
2022/08/13 03:14:56;;;;;;;;;;;;;;;24.79;52.13;101395.13;1025226;28;728;-67
2022/08/13 03:15:47;;;;;;;;;;;;;;;24.78;52.27;101401.59;1024664;28;1257;-67
2022/08/13 03:16:39;;;;;;;;;;;;;;;24.76;52.21;101399.06;1023934;29;1143;-67
2022/08/13 03:17:30;;;;;;;;;;;;;;;24.77;52.35;101398.03;1024290;29;631;-67
2022/08/13 03:18:20;;;;;;;;;;;;;;;24.76;52.35;101400.94;1021795;28;728;-67
2022/08/13 03:19:10;;;;;;;;;;;;;;;24.77;52.32;101397.19;1021354;29;686;-67
2022/08/13 03:20:01;;;;;;;;;;;;;;;24.75;52.21;101400.09;1020178;29;682;-67
2022/08/13 03:20:51;;;;;;;;;;;;;;;24.77;52.18;101400.75;1021229;29;709;-67
2022/08/13 03:21:43;;;;;;;;;;;;;;;24.75;52.26;101397.34;1021184;29;635;-67
2022/08/13 03:22:40;;;;;;;;;;;;;;;24.75;52.30;101391.06;1021187;29;682;-67
2022/08/13 03:23:31;;;;;;;;;;;;;;;24.76;52.15;101393.59;1020099;29;702;-68
2022/08/13 03:24:21;;;;;;;;;;;;;;;24.73;52.58;101391.22;1021237;29;658;-67
2022/08/13 03:25:12;;;;;;;;;;;;;;;24.72;52.42;101394.16;1021314;29;627;-67
2022/08/13 03:26:02;;;;;;;;;;;;;;;24.73;52.41;101395.84;1021289;29;634;-67
2022/08/13 03:26:53;;;;;;;;;;;;;;;24.72;52.43;101394.97;1021139;29;686;-67
2022/08/13 03:27:44;;;;;;;;;;;;;;;24.72;52.24;101397.72;1021208;29;662;-67
2022/08/13 03:28:34;;;;;;;;;;;;;;;24.71;52.54;101389.75;1021151;29;662;-68
2022/08/13 03:29:25;;;;;;;;;;;;;;;24.71;52.00;101401.50;1021186;29;813;-67
2022/08/13 03:30:16;;;;;;;;;;;;;;;24.70;52.42;101397.06;1020587;29;788;-67
2022/08/13 03:31:06;;;;;;;;;;;;;;;24.70;52.46;101401.66;1021228;29;681;-67
2022/08/13 03:31:57;;;;;;;;;;;;;;;24.69;52.43;101394.50;1021169;29;631;-67
2022/08/13 03:32:47;;;;;;;;;;;;;;;24.70;52.05;101398.94;1023767;29;657;-68
2022/08/13 03:33:38;;;;;;;;;;;;;;;24.69;52.40;101399.97;1025440;28;627;-67
2022/08/13 03:34:29;;;;;;;;;;;;;;;24.67;52.39;101397.41;1020097;29;643;-67
2022/08/13 03:35:19;;;;;;;;;;;;;;;24.68;52.42;101401.00;1021210;29;717;-68
2022/08/13 03:36:10;;;;;;;;;;;;;;;24.68;52.38;101403.72;1021211;29;627;-67
2022/08/13 03:37:01;;;;;;;;;;;;;;;24.66;52.33;101401.16;1021193;29;619;-67
2022/08/13 03:37:53;;;;;;;;;;;;;;;24.64;52.42;101399.63;1020212;29;722;-67
2022/08/13 03:38:43;;;;;;;;;;;;;;;24.64;52.38;101392.31;1021180;29;611;-68
2022/08/13 03:39:34;;;;;;;;;;;;;;;24.64;52.26;101397.75;1020084;29;694;-68
2022/08/13 03:40:24;;;;;;;;;;;;;;;24.65;52.33;101398.63;1021197;29;662;-67
2022/08/13 03:41:15;;;;;;;;;;;;;;;24.63;52.36;101396.06;1021126;29;619;-67
2022/08/13 03:42:05;;;;;;;;;;;;;;;24.63;52.43;101390.63;1020283;29;697;-67
2022/08/13 03:42:56;;;;;;;;;;;;;;;24.64;52.46;101402.38;1020061;29;679;-67
2022/08/13 03:43:47;;;;;;;;;;;;;;;24.63;52.25;101403.38;1021059;29;611;-67
2022/08/13 03:44:37;;;;;;;;;;;;;;;24.64;52.13;101397.75;1019934;29;915;-67
2022/08/13 03:45:30;;;;;;;;;;;;;;;24.62;52.31;101398.97;1021102;29;640;-67
2022/08/13 03:46:20;;;;;;;;;;;;;;;24.62;52.43;101398.97;1021190;29;650;-68
2022/08/13 03:47:13;;;;;;;;;;;;;;;24.61;52.21;101403.56;1021231;29;607;-67
2022/08/13 03:48:04;;;;;;;;;;;;;;;24.60;52.33;101401.88;1020101;29;705;-67
2022/08/13 03:48:54;;;;;;;;;;;;;;;24.61;52.44;101397.25;1020178;29;639;-68
2022/08/13 03:49:46;;;;;;;;;;;;;;;24.61;52.12;101397.25;1020106;29;730;-67
2022/08/13 03:50:36;;;;;;;;;;;;;;;24.60;52.46;101401.00;1020176;29;643;-67
2022/08/13 03:51:27;;;;;;;;;;;;;;;24.58;52.62;101395.75;1021089;29;674;-67
2022/08/13 03:52:17;;;;;;;;;;;;;;;24.59;52.20;101394.72;1021263;29;825;-67
2022/08/13 03:53:08;;;;;;;;;;;;;;;24.57;52.40;101399.50;1021244;29;659;-67
2022/08/13 03:53:59;;;;;;;;;;;;;;;24.56;52.19;101395.91;1021119;29;607;-67
2022/08/13 03:54:49;;;;;;;;;;;;;;;24.56;52.45;101393.19;1021129;29;643;-68
2022/08/13 03:55:42;;;;;;;;;;;;;;;24.56;52.17;101395.06;1021168;29;647;-67
2022/08/13 03:56:32;;;;;;;;;;;;;;;24.57;52.36;101396.75;1020124;29;674;-68
2022/08/13 03:57:23;;;;;;;;;;;;;;;24.56;52.20;101406.81;1021187;29;793;-67
2022/08/13 03:58:17;;;;;;;;;;;;;;;24.55;52.27;101394.22;1021225;29;631;-67
2022/08/13 03:59:13;;;;;;;;;;;;;;;24.54;52.70;101395.25;1021159;29;599;-67
2022/08/13 04:00:03;;;;;;;;;;;;;;;24.55;52.26;101399.66;1021054;29;697;-67
2022/08/13 04:00:54;;;;;;;;;;;;;;;24.55;52.07;101398.81;1021177;29;615;-67
2022/08/13 04:01:44;;;;;;;;;;;;;;;24.53;52.23;101399.03;1021074;29;658;-67
2022/08/13 04:02:40;;;;;;;;;;;;;;;24.54;52.46;101397.16;1021207;29;611;-67
2022/08/13 04:03:30;;;;;;;;;;;;;;;24.52;52.19;101389.16;1021156;29;622;-67
2022/08/13 04:04:21;;;;;;;;;;;;;;;24.52;52.28;101391.88;1021121;29;675;-67
2022/08/13 04:05:16;;;;;;;;;;;;;;;24.51;52.19;101392.91;1021245;29;670;-67
2022/08/13 04:06:07;;;;;;;;;;;;;;;24.50;52.43;101393.91;1021084;29;626;-67
2022/08/13 04:06:57;;;;;;;;;;;;;;;24.50;52.20;101391.19;1021058;29;663;-67
2022/08/13 04:07:50;;;;;;;;;;;;;;;24.49;52.48;101392.22;1021600;28;678;-68
2022/08/13 04:08:41;;;;;;;;;;;;;;;24.50;52.51;101390.34;1021077;29;694;-67
2022/08/13 04:09:31;;;;;;;;;;;;;;;24.49;52.14;101389.50;1020634;29;745;-67
2022/08/13 04:10:22;;;;;;;;;;;;;;;24.50;52.01;101384.91;1019761;29;1195;-68
2022/08/13 04:11:12;;;;;;;;;;;;;;;24.50;52.30;101391.19;1021142;29;631;-67
2022/08/13 04:12:09;;;;;;;;;;;;;;;24.50;52.38;101393.91;1021121;29;627;-68
2022/08/13 04:12:59;;;;;;;;;;;;;;;24.48;52.43;101398.69;1021099;29;599;-68
2022/08/13 04:13:50;;;;;;;;;;;;;;;24.47;52.53;101391.53;1021007;29;698;-68
2022/08/13 04:14:40;;;;;;;;;;;;;;;24.48;52.34;101386.94;1021070;29;607;-67
2022/08/13 04:15:31;;;;;;;;;;;;;;;24.46;52.26;101389.00;1021094;29;615;-68
2022/08/13 04:16:21;;;;;;;;;;;;;;;24.47;52.35;101393.41;1024579;29;623;-68
2022/08/13 04:17:11;;;;;;;;;;;;;;;24.47;52.12;101394.28;1025101;28;678;-67
2022/08/13 04:18:02;;;;;;;;;;;;;;;24.46;52.37;101389.84;1025026;28;619;-68
2022/08/13 04:18:54;;;;;;;;;;;;;;;24.45;52.17;101387.28;1025013;28;627;-68
2022/08/13 04:19:45;;;;;;;;;;;;;;;24.44;52.22;101386.44;1024996;28;695;-67
2022/08/13 04:20:37;;;;;;;;;;;;;;;24.45;52.33;101390.88;1024993;28;760;-68
2022/08/13 04:21:31;;;;;;;;;;;;;;;24.43;52.22;101394.78;1025011;28;619;-67
2022/08/13 04:22:22;;;;;;;;;;;;;;;24.44;52.22;101391.88;1025150;28;659;-67
2022/08/13 04:23:13;;;;;;;;;;;;;;;24.42;52.12;101391.22;1028672;28;1957;-67
2022/08/13 04:24:04;;;;;;;;;;;;;;;24.42;52.30;101383.03;1028738;28;654;-68
2022/08/13 04:24:54;;;;;;;;;;;;;;;24.43;52.14;101395.63;1025021;28;681;-68
2022/08/13 04:25:46;;;;;;;;;;;;;;;24.43;52.33;101387.47;1025004;28;682;-68
2022/08/13 04:26:36;;;;;;;;;;;;;;;24.42;52.23;101393.94;1025130;28;678;-67
2022/08/13 04:27:26;;;;;;;;;;;;;;;24.42;52.46;101396.66;1025056;28;768;-67
2022/08/13 04:28:18;;;;;;;;;;;;;;;24.42;52.21;101399.38;1025086;28;630;-67
2022/08/13 04:29:11;;;;;;;;;;;;;;;24.41;52.18;101392.25;1025034;28;654;-67
2022/08/13 04:30:01;;;;;;;;;;;;;;;24.41;52.32;101394.97;1025034;28;643;-67
2022/08/13 04:30:52;;;;;;;;;;;;;;;24.41;52.49;101397.69;1025072;28;611;-68
2022/08/13 04:31:45;;;;;;;;;;;;;;;24.41;51.99;101392.25;1025043;28;694;-68
2022/08/13 04:32:37;;;;;;;;;;;;;;;24.39;52.62;101397.00;1025013;28;659;-67
2022/08/13 04:33:27;;;;;;;;;;;;;;;24.38;52.24;101395.31;1024950;28;690;-68
2022/08/13 04:34:18;;;;;;;;;;;;;;;24.38;52.50;101391.72;1024997;28;698;-67
2022/08/13 04:35:09;;;;;;;;;;;;;;;24.38;52.24;101392.59;1028631;28;639;-67
2022/08/13 04:35:59;;;;;;;;;;;;;;;24.38;52.43;101389.88;1028738;28;690;-68
2022/08/13 04:36:50;;;;;;;;;;;;;;;24.39;52.35;101391.56;1025434;28;713;-67
2022/08/13 04:37:40;;;;;;;;;;;;;;;24.38;52.37;101386.28;1025794;28;693;-67